sensor_id;sensor_type;location;lat;lon;timestamp;pressure;altitude;pressure_sealevel;temperature;humidity
37068;BME280;22982;42.848;25.468;2023-05-09T00:03:42;96598.63;;;11.72;100.00
37068;BME280;22982;42.848;25.468;2023-05-09T00:08:45;96590.25;;;11.51;100.00
37068;BME280;22982;42.848;25.468;2023-05-09T00:13:48;96597.38;;;11.63;100.00
37068;BME280;22982;42.848;25.468;2023-05-09T00:18:52;96603.09;;;11.56;100.00
37068;BME280;22982;42.848;25.468;2023-05-09T00:23:54;96598.09;;;11.37;100.00
37068;BME280;22982;42.848;25.468;2023-05-09T00:28:57;96590.03;;;11.40;100.00
37068;BME280;22982;42.848;25.468;2023-05-09T00:34:00;96568.63;;;11.32;100.00
37068;BME280;22982;42.848;25.468;2023-05-09T00:39:02;96589.06;;;11.57;100.00
37068;BME280;22982;42.848;25.468;2023-05-09T00:44:07;96576.94;;;11.54;100.00
37068;BME280;22982;42.848;25.468;2023-05-09T00:49:09;96601.69;;;11.50;100.00
37068;BME280;22982;42.848;25.468;2023-05-09T00:54:13;96592.69;;;11.54;100.00
37068;BME280;22982;42.848;25.468;2023-05-09T00:59:17;96599.34;;;11.45;100.00
37068;BME280;22982;42.848;25.468;2023-05-09T01:04:19;96607.84;;;11.49;100.00
37068;BME280;22982;42.848;25.468;2023-05-09T01:09:41;96608.97;;;11.45;100.00
37068;BME280;22982;42.848;25.468;2023-05-09T01:20:14;96611.03;;;11.40;100.00
37068;BME280;22982;42.848;25.468;2023-05-09T01:25:35;96590.19;;;11.22;100.00
37068;BME280;22982;42.848;25.468;2023-05-09T01:30:41;96570.72;;;11.10;100.00
37068;BME280;22982;42.848;25.468;2023-05-09T01:35:49;96589.56;;;11.33;100.00
37068;BME280;22982;42.848;25.468;2023-05-09T01:40:55;96590.22;;;11.37;100.00
37068;BME280;22982;42.848;25.468;2023-05-09T01:46:02;96607.97;;;11.47;100.00
37068;BME280;22982;42.848;25.468;2023-05-09T01:51:08;96599.22;;;11.47;100.00
37068;BME280;22982;42.848;25.468;2023-05-09T01:56:14;96583.44;;;11.33;100.00
37068;BME280;22982;42.848;25.468;2023-05-09T02:01:18;96605.78;;;11.40;100.00
37068;BME280;22982;42.848;25.468;2023-05-09T02:06:22;96593.19;;;11.30;100.00
37068;BME280;22982;42.848;25.468;2023-05-09T02:11:26;96577.13;;;11.21;100.00
37068;BME280;22982;42.848;25.468;2023-05-09T02:16:28;96598.31;;;11.18;100.00
37068;BME280;22982;42.848;25.468;2023-05-09T02:21:31;96595.50;;;11.21;100.00
37068;BME280;22982;42.848;25.468;2023-05-09T02:26:34;96585.31;;;11.30;100.00
37068;BME280;22982;42.848;25.468;2023-05-09T02:31:39;96596.41;;;11.36;100.00
37068;BME280;22982;42.848;25.468;2023-05-09T02:36:42;96604.94;;;11.39;100.00
37068;BME280;22982;42.848;25.468;2023-05-09T02:41:48;96605.41;;;11.32;100.00
37068;BME280;22982;42.848;25.468;2023-05-09T02:46:52;96574.09;;;11.13;100.00
37068;BME280;22982;42.848;25.468;2023-05-09T02:51:55;96607.53;;;11.09;100.00
37068;BME280;22982;42.848;25.468;2023-05-09T02:56:57;96614.16;;;11.00;100.00
37068;BME280;22982;42.848;25.468;2023-05-09T03:02:00;96619.25;;;11.03;100.00
37068;BME280;22982;42.848;25.468;2023-05-09T03:07:03;96627.69;;;11.08;100.00
37068;BME280;22982;42.848;25.468;2023-05-09T03:12:07;96613.00;;;10.90;100.00
37068;BME280;22982;42.848;25.468;2023-05-09T03:17:10;96619.59;;;10.81;100.00
37068;BME280;22982;42.848;25.468;2023-05-09T03:22:13;96637.88;;;10.83;100.00
37068;BME280;22982;42.848;25.468;2023-05-09T03:27:26;96632.28;;;10.73;100.00
37068;BME280;22982;42.848;25.468;2023-05-09T03:32:29;96649.88;;;10.71;100.00
37068;BME280;22982;42.848;25.468;2023-05-09T03:37:31;96645.31;;;10.59;100.00
37068;BME280;22982;42.848;25.468;2023-05-09T03:42:34;96665.13;;;10.64;100.00
37068;BME280;22982;42.848;25.468;2023-05-09T03:47:37;96664.59;;;10.58;100.00
37068;BME280;22982;42.848;25.468;2023-05-09T03:52:40;96664.59;;;10.58;100.00
37068;BME280;22982;42.848;25.468;2023-05-09T03:57:42;96659.50;;;10.54;100.00
37068;BME280;22982;42.848;25.468;2023-05-09T04:02:45;96678.31;;;10.63;100.00
37068;BME280;22982;42.848;25.468;2023-05-09T04:07:57;96687.63;;;10.68;100.00
37068;BME280;22982;42.848;25.468;2023-05-09T04:12:59;96666.97;;;10.62;100.00
37068;BME280;22982;42.848;25.468;2023-05-09T04:18:03;96686.09;;;10.80;100.00
37068;BME280;22982;42.848;25.468;2023-05-09T04:23:06;96674.25;;;10.57;100.00
37068;BME280;22982;42.848;25.468;2023-05-09T04:28:08;96688.63;;;10.66;100.00
37068;BME280;22982;42.848;25.468;2023-05-09T04:33:12;96674.00;;;10.62;100.00
37068;BME280;22982;42.848;25.468;2023-05-09T04:38:16;96685.31;;;10.62;100.00
37068;BME280;22982;42.848;25.468;2023-05-09T04:43:19;96667.97;;;10.44;100.00
37068;BME280;22982;42.848;25.468;2023-05-09T04:48:22;96678.06;;;10.51;100.00
37068;BME280;22982;42.848;25.468;2023-05-09T04:53:25;96690.06;;;10.56;100.00
37068;BME280;22982;42.848;25.468;2023-05-09T04:58:31;96682.69;;;10.46;100.00
37068;BME280;22982;42.848;25.468;2023-05-09T05:03:35;96696.16;;;10.56;100.00
37068;BME280;22982;42.848;25.468;2023-05-09T05:08:40;96688.78;;;10.47;100.00
37068;BME280;22982;42.848;25.468;2023-05-09T05:13:43;96692.56;;;10.41;100.00
37068;BME280;22982;42.848;25.468;2023-05-09T05:18:45;96693.94;;;10.48;100.00
37068;BME280;22982;42.848;25.468;2023-05-09T05:23:50;96689.72;;;10.28;100.00
37068;BME280;22982;42.848;25.468;2023-05-09T05:28:54;96712.19;;;10.34;100.00
37068;BME280;22982;42.848;25.468;2023-05-09T05:34:00;96717.88;;;10.25;100.00
37068;BME280;22982;42.848;25.468;2023-05-09T05:39:05;96715.13;;;10.10;100.00
37068;BME280;22982;42.848;25.468;2023-05-09T05:44:07;96724.66;;;10.11;100.00
37068;BME280;22982;42.848;25.468;2023-05-09T05:49:10;96714.34;;;9.91;100.00
37068;BME280;22982;42.848;25.468;2023-05-09T05:54:12;96730.44;;;10.01;100.00
37068;BME280;22982;42.848;25.468;2023-05-09T05:59:16;96736.84;;;10.12;100.00
37068;BME280;22982;42.848;25.468;2023-05-09T06:04:19;96753.19;;;10.18;100.00
37068;BME280;22982;42.848;25.468;2023-05-09T06:09:22;96734.66;;;10.21;100.00
37068;BME280;22982;42.848;25.468;2023-05-09T06:14:25;96737.81;;;10.10;100.00
37068;BME280;22982;42.848;25.468;2023-05-09T06:19:27;96736.97;;;10.09;100.00
37068;BME280;22982;42.848;25.468;2023-05-09T06:24:31;96728.69;;;10.01;100.00
37068;BME280;22982;42.848;25.468;2023-05-09T06:29:37;96739.38;;;10.14;100.00
37068;BME280;22982;42.848;25.468;2023-05-09T06:34:39;96743.88;;;10.12;100.00
37068;BME280;22982;42.848;25.468;2023-05-09T06:39:43;96736.97;;;10.09;100.00
37068;BME280;22982;42.848;25.468;2023-05-09T06:44:45;96743.47;;;10.20;100.00
37068;BME280;22982;42.848;25.468;2023-05-09T06:49:48;96713.34;;;10.11;100.00
37068;BME280;22982;42.848;25.468;2023-05-09T06:54:51;96730.09;;;10.24;100.00
37068;BME280;22982;42.848;25.468;2023-05-09T06:59:54;96733.88;;;10.19;100.00
37068;BME280;22982;42.848;25.468;2023-05-09T07:04:56;96728.81;;;10.15;100.00
37068;BME280;22982;42.848;25.468;2023-05-09T07:09:59;96734.75;;;10.02;100.00
37068;BME280;22982;42.848;25.468;2023-05-09T07:15:12;96727.66;;;10.04;100.00
37068;BME280;22982;42.848;25.468;2023-05-09T07:20:29;96737.53;;;10.16;100.00
37068;BME280;22982;42.848;25.468;2023-05-09T07:25:32;96741.28;;;10.28;100.00
37068;BME280;22982;42.848;25.468;2023-05-09T07:30:34;96749.03;;;10.31;100.00
37068;BME280;22982;42.848;25.468;2023-05-09T07:35:37;96757.41;;;10.20;100.00
37068;BME280;22982;42.848;25.468;2023-05-09T07:40:39;96741.47;;;10.07;100.00
37068;BME280;22982;42.848;25.468;2023-05-09T07:45:42;96748.09;;;10.14;100.00
37068;BME280;22982;42.848;25.468;2023-05-09T07:50:45;96733.16;;;9.99;100.00
37068;BME280;22982;42.848;25.468;2023-05-09T07:55:47;96740.38;;;10.11;100.00
37068;BME280;22982;42.848;25.468;2023-05-09T08:00:54;96751.94;;;10.25;100.00
37068;BME280;22982;42.848;25.468;2023-05-09T08:05:57;96751.50;;;9.99;100.00
37068;BME280;22982;42.848;25.468;2023-05-09T08:11:00;96763.03;;;9.95;100.00
37068;BME280;22982;42.848;25.468;2023-05-09T08:16:02;96760.63;;;9.73;100.00
37068;BME280;22982;42.848;25.468;2023-05-09T08:21:05;96733.03;;;9.48;100.00
37068;BME280;22982;42.848;25.468;2023-05-09T08:26:07;96778.84;;;9.57;100.00
37068;BME280;22982;42.848;25.468;2023-05-09T08:31:10;96761.94;;;9.64;100.00
37068;BME280;22982;42.848;25.468;2023-05-09T08:36:13;96769.72;;;9.66;100.00
37068;BME280;22982;42.848;25.468;2023-05-09T08:41:15;96759.94;;;9.69;100.00
37068;BME280;22982;42.848;25.468;2023-05-09T08:46:23;96773.16;;;9.66;100.00
37068;BME280;22982;42.848;25.468;2023-05-09T08:51:29;96765.16;;;9.69;100.00
37068;BME280;22982;42.848;25.468;2023-05-09T08:56:34;96765.03;;;9.90;100.00
37068;BME280;22982;42.848;25.468;2023-05-09T09:01:38;96763.22;;;9.92;100.00
37068;BME280;22982;42.848;25.468;2023-05-09T09:06:41;96746.28;;;9.63;100.00
37068;BME280;22982;42.848;25.468;2023-05-09T09:11:44;96777.53;;;9.85;100.00
37068;BME280;22982;42.848;25.468;2023-05-09T09:16:48;96767.47;;;9.75;100.00
37068;BME280;22982;42.848;25.468;2023-05-09T09:21:54;96765.63;;;9.60;100.00
37068;BME280;22982;42.848;25.468;2023-05-09T09:27:04;96786.88;;;9.71;100.00
37068;BME280;22982;42.848;25.468;2023-05-09T09:32:07;96767.66;;;9.72;100.00
37068;BME280;22982;42.848;25.468;2023-05-09T09:37:20;96786.06;;;9.71;100.00
37068;BME280;22982;42.848;25.468;2023-05-09T09:42:23;96771.19;;;9.71;100.00
37068;BME280;22982;42.848;25.468;2023-05-09T09:47:31;96774.69;;;9.53;100.00
37068;BME280;22982;42.848;25.468;2023-05-09T09:52:33;96782.31;;;9.57;100.00
37068;BME280;22982;42.848;25.468;2023-05-09T09:57:36;96793.22;;;9.67;100.00
37068;BME280;22982;42.848;25.468;2023-05-09T10:02:54;96795.38;;;9.76;100.00
37068;BME280;22982;42.848;25.468;2023-05-09T10:08:02;96786.13;;;9.69;100.00
37068;BME280;22982;42.848;25.468;2023-05-09T10:13:08;96783.81;;;9.81;100.00
37068;BME280;22982;42.848;25.468;2023-05-09T10:18:11;96800.47;;;9.80;100.00
37068;BME280;22982;42.848;25.468;2023-05-09T10:23:20;96782.72;;;9.67;100.00
37068;BME280;22982;42.848;25.468;2023-05-09T10:28:43;96801.53;;;9.75;100.00
37068;BME280;22982;42.848;25.468;2023-05-09T10:33:48;96818.81;;;9.80;100.00
37068;BME280;22982;42.848;25.468;2023-05-09T10:38:53;96783.72;;;9.65;100.00
37068;BME280;22982;42.848;25.468;2023-05-09T10:43:57;96797.94;;;9.59;100.00
37068;BME280;22982;42.848;25.468;2023-05-09T10:49:00;96787.16;;;9.48;100.00
37068;BME280;22982;42.848;25.468;2023-05-09T10:54:12;96819.25;;;9.70;100.00
37068;BME280;22982;42.848;25.468;2023-05-09T11:04:35;96804.94;;;9.77;100.00
37068;BME280;22982;42.848;25.468;2023-05-09T11:09:38;96804.25;;;9.91;100.00
37068;BME280;22982;42.848;25.468;2023-05-09T11:14:44;96803.44;;;10.08;100.00
37068;BME280;22982;42.848;25.468;2023-05-09T11:24:51;96810.75;;;10.02;100.00
37068;BME280;22982;42.848;25.468;2023-05-09T11:29:56;96815.59;;;10.09;100.00
37068;BME280;22982;42.848;25.468;2023-05-09T11:35:10;96816.69;;;10.23;100.00
37068;BME280;22982;42.848;25.468;2023-05-09T11:40:15;96807.94;;;10.41;100.00
37068;BME280;22982;42.848;25.468;2023-05-09T11:45:19;96789.09;;;10.50;100.00
37068;BME280;22982;42.848;25.468;2023-05-09T11:50:22;96810.84;;;10.52;100.00
37068;BME280;22982;42.848;25.468;2023-05-09T11:55:25;96806.84;;;10.45;100.00
37068;BME280;22982;42.848;25.468;2023-05-09T12:00:31;96800.78;;;10.26;100.00
37068;BME280;22982;42.848;25.468;2023-05-09T12:05:35;96795.72;;;10.40;100.00
37068;BME280;22982;42.848;25.468;2023-05-09T12:10:40;96787.69;;;10.26;100.00
37068;BME280;22982;42.848;25.468;2023-05-09T12:15:42;96795.47;;;10.27;100.00
37068;BME280;22982;42.848;25.468;2023-05-09T12:20:49;96803.91;;;10.34;100.00
37068;BME280;22982;42.848;25.468;2023-05-09T12:25:55;96790.97;;;10.31;100.00
37068;BME280;22982;42.848;25.468;2023-05-09T12:30:59;96780.16;;;10.20;100.00
37068;BME280;22982;42.848;25.468;2023-05-09T12:36:09;96792.25;;;10.22;100.00
37068;BME280;22982;42.848;25.468;2023-05-09T12:41:16;96774.13;;;10.00;100.00
37068;BME280;22982;42.848;25.468;2023-05-09T12:46:37;96770.75;;;9.98;100.00
37068;BME280;22982;42.848;25.468;2023-05-09T12:51:47;96765.66;;;9.95;100.00
37068;BME280;22982;42.848;25.468;2023-05-09T12:56:51;96781.66;;;10.06;100.00
37068;BME280;22982;42.848;25.468;2023-05-09T13:01:59;96769.81;;;10.16;100.00
37068;BME280;22982;42.848;25.468;2023-05-09T13:07:07;96763.03;;;10.12;100.00
37068;BME280;22982;42.848;25.468;2023-05-09T13:12:14;96760.63;;;10.08;100.00
37068;BME280;22982;42.848;25.468;2023-05-09T13:17:16;96769.66;;;10.20;100.00
37068;BME280;22982;42.848;25.468;2023-05-09T13:22:19;96752.72;;;10.09;100.00
37068;BME280;22982;42.848;25.468;2023-05-09T13:27:21;96753.72;;;10.07;100.00
37068;BME280;22982;42.848;25.468;2023-05-09T13:32:25;96766.81;;;10.07;100.00
37068;BME280;22982;42.848;25.468;2023-05-09T13:37:27;96765.03;;;10.07;100.00
37068;BME280;22982;42.848;25.468;2023-05-09T13:42:29;96763.50;;;10.03;100.00
37068;BME280;22982;42.848;25.468;2023-05-09T13:47:33;96775.13;;;10.15;100.00
37068;BME280;22982;42.848;25.468;2023-05-09T13:52:37;96751.50;;;9.99;100.00
37068;BME280;22982;42.848;25.468;2023-05-09T13:57:41;96765.03;;;10.07;100.00
37068;BME280;22982;42.848;25.468;2023-05-09T14:02:44;96753.31;;;10.14;100.00
37068;BME280;22982;42.848;25.468;2023-05-09T14:07:47;96736.75;;;10.14;100.00
37068;BME280;22982;42.848;25.468;2023-05-09T14:24:38;96735.81;;;10.15;100.00
37068;BME280;22982;42.848;25.468;2023-05-09T14:29:42;96720.63;;;10.22;100.00
37068;BME280;22982;42.848;25.468;2023-05-09T14:34:45;96717.66;;;9.94;100.00
37068;BME280;22982;42.848;25.468;2023-05-09T14:39:51;96766.06;;;10.05;100.00
37068;BME280;22982;42.848;25.468;2023-05-09T14:44:53;96767.25;;;10.15;100.00
37068;BME280;22982;42.848;25.468;2023-05-09T14:56:23;96739.84;;;10.40;100.00
37068;BME280;22982;42.848;25.468;2023-05-09T15:01:38;96772.44;;;10.85;100.00
37068;BME280;22982;42.848;25.468;2023-05-09T15:06:44;96750.00;;;10.79;100.00
37068;BME280;22982;42.848;25.468;2023-05-09T15:12:01;96726.44;;;10.62;100.00
37068;BME280;22982;42.848;25.468;2023-05-09T15:17:03;96732.19;;;10.52;100.00
37068;BME280;22982;42.848;25.468;2023-05-09T15:22:05;96738.09;;;10.89;100.00
37068;BME280;22982;42.848;25.468;2023-05-09T15:27:09;96720.97;;;10.66;100.00
37068;BME280;22982;42.848;25.468;2023-05-09T15:32:12;96704.66;;;10.44;100.00
37068;BME280;22982;42.848;25.468;2023-05-09T15:37:15;96714.03;;;10.32;100.00
37068;BME280;22982;42.848;25.468;2023-05-09T15:42:17;96731.50;;;10.31;100.00
37068;BME280;22982;42.848;25.468;2023-05-09T15:47:20;96743.38;;;10.39;100.00
37068;BME280;22982;42.848;25.468;2023-05-09T15:52:23;96721.25;;;10.27;100.00
37068;BME280;22982;42.848;25.468;2023-05-09T15:57:27;96700.63;;;10.03;100.00
37068;BME280;22982;42.848;25.468;2023-05-09T16:02:30;96720.06;;;9.99;100.00
37068;BME280;22982;42.848;25.468;2023-05-09T16:07:32;96723.88;;;10.09;100.00
37068;BME280;22982;42.848;25.468;2023-05-09T16:12:37;96737.13;;;10.06;100.00
37068;BME280;22982;42.848;25.468;2023-05-09T16:17:39;96725.38;;;9.98;100.00
37068;BME280;22982;42.848;25.468;2023-05-09T16:22:42;96750.16;;;10.08;100.00
37068;BME280;22982;42.848;25.468;2023-05-09T16:27:44;96752.41;;;9.98;100.00
37068;BME280;22982;42.848;25.468;2023-05-09T16:32:46;96750.78;;;10.13;100.00
37068;BME280;22982;42.848;25.468;2023-05-09T16:37:49;96748.31;;;10.10;100.00
37068;BME280;22982;42.848;25.468;2023-05-09T16:42:51;96752.47;;;9.96;100.00
37068;BME280;22982;42.848;25.468;2023-05-09T16:47:54;96760.41;;;9.95;100.00
37068;BME280;22982;42.848;25.468;2023-05-09T16:53:01;96757.16;;;9.90;100.00
37068;BME280;22982;42.848;25.468;2023-05-09T16:58:05;96750.09;;;9.92;100.00
37068;BME280;22982;42.848;25.468;2023-05-09T17:03:08;96752.81;;;9.90;100.00
37068;BME280;22982;42.848;25.468;2023-05-09T17:08:11;96768.56;;;10.06;100.00
37068;BME280;22982;42.848;25.468;2023-05-09T17:13:13;96754.00;;;10.01;100.00
37068;BME280;22982;42.848;25.468;2023-05-09T17:18:17;96746.63;;;10.09;100.00
37068;BME280;22982;42.848;25.468;2023-05-09T17:23:36;96760.28;;;10.15;100.00
37068;BME280;22982;42.848;25.468;2023-05-09T17:28:40;96766.44;;;10.14;100.00
37068;BME280;22982;42.848;25.468;2023-05-09T17:33:42;96766.66;;;9.92;100.00
37068;BME280;22982;42.848;25.468;2023-05-09T17:38:45;96779.84;;;10.08;100.00
37068;BME280;22982;42.848;25.468;2023-05-09T17:43:47;96753.94;;;10.02;100.00
37068;BME280;22982;42.848;25.468;2023-05-09T17:48:52;96762.81;;;10.00;100.00
37068;BME280;22982;42.848;25.468;2023-05-09T17:53:55;96765.66;;;9.95;100.00
37068;BME280;22982;42.848;25.468;2023-05-09T17:58:58;96775.28;;;9.94;100.00
37068;BME280;22982;42.848;25.468;2023-05-09T18:04:00;96786.56;;;10.14;100.00
37068;BME280;22982;42.848;25.468;2023-05-09T18:09:03;96772.28;;;10.02;100.00
37068;BME280;22982;42.848;25.468;2023-05-09T18:14:07;96778.47;;;10.01;100.00
37068;BME280;22982;42.848;25.468;2023-05-09T18:19:09;96780.38;;;9.98;100.00
37068;BME280;22982;42.848;25.468;2023-05-09T18:24:12;96782.44;;;9.91;100.00
37068;BME280;22982;42.848;25.468;2023-05-09T18:29:18;96786.09;;;9.88;100.00
37068;BME280;22982;42.848;25.468;2023-05-09T18:34:20;96791.84;;;9.95;100.00
37068;BME280;22982;42.848;25.468;2023-05-09T18:39:23;96802.63;;;9.89;100.00
37068;BME280;22982;42.848;25.468;2023-05-09T18:44:26;96807.56;;;9.77;100.00
37068;BME280;22982;42.848;25.468;2023-05-09T18:49:29;96792.38;;;9.67;100.00
37068;BME280;22982;42.848;25.468;2023-05-09T18:54:31;96790.97;;;9.60;100.00
37068;BME280;22982;42.848;25.468;2023-05-09T18:59:34;96800.22;;;9.67;100.00
37068;BME280;22982;42.848;25.468;2023-05-09T19:04:36;96806.22;;;9.69;100.00
37068;BME280;22982;42.848;25.468;2023-05-09T19:09:40;96779.34;;;9.65;100.00
37068;BME280;22982;42.848;25.468;2023-05-09T19:14:42;96791.66;;;9.63;100.00
37068;BME280;22982;42.848;25.468;2023-05-09T19:19:45;96801.13;;;9.66;100.00
37068;BME280;22982;42.848;25.468;2023-05-09T19:24:47;96802.41;;;9.76;100.00
37068;BME280;22982;42.848;25.468;2023-05-09T19:29:52;96796.59;;;9.69;100.00
37068;BME280;22982;42.848;25.468;2023-05-09T19:34:54;96795.44;;;9.75;100.00
37068;BME280;22982;42.848;25.468;2023-05-09T19:39:56;96787.66;;;9.73;100.00
37068;BME280;22982;42.848;25.468;2023-05-09T19:45:00;96798.91;;;9.75;100.00
37068;BME280;22982;42.848;25.468;2023-05-09T19:50:02;96753.38;;;9.61;100.00
37068;BME280;22982;42.848;25.468;2023-05-09T19:55:06;96794.47;;;9.77;100.00
37068;BME280;22982;42.848;25.468;2023-05-09T20:00:11;96777.63;;;9.47;100.00
37068;BME280;22982;42.848;25.468;2023-05-09T20:05:13;96777.25;;;9.35;100.00
37068;BME280;22982;42.848;25.468;2023-05-09T20:10:16;96784.66;;;9.45;100.00
37068;BME280;22982;42.848;25.468;2023-05-09T20:15:18;96783.31;;;9.55;100.00
37068;BME280;22982;42.848;25.468;2023-05-09T20:20:21;96791.03;;;9.58;100.00
37068;BME280;22982;42.848;25.468;2023-05-09T20:25:24;96789.63;;;9.51;100.00
37068;BME280;22982;42.848;25.468;2023-05-09T20:30:26;96779.31;;;9.48;100.00
37068;BME280;22982;42.848;25.468;2023-05-09T20:35:30;96782.22;;;9.42;100.00
37068;BME280;22982;42.848;25.468;2023-05-09T20:40:32;96784.91;;;9.40;100.00
37068;BME280;22982;42.848;25.468;2023-05-09T20:45:35;96771.59;;;9.45;100.00
37068;BME280;22982;42.848;25.468;2023-05-09T20:50:40;96776.69;;;9.48;100.00
37068;BME280;22982;42.848;25.468;2023-05-09T20:55:43;96754.84;;;9.49;100.00
37068;BME280;22982;42.848;25.468;2023-05-09T21:00:45;96771.16;;;9.54;100.00
37068;BME280;22982;42.848;25.468;2023-05-09T21:05:48;96763.91;;;9.59;100.00
37068;BME280;22982;42.848;25.468;2023-05-09T21:10:51;96766.19;;;9.67;100.00
37068;BME280;22982;42.848;25.468;2023-05-09T21:15:53;96739.59;;;9.57;100.00
37068;BME280;22982;42.848;25.468;2023-05-09T21:20:56;96766.06;;;9.51;100.00
37068;BME280;22982;42.848;25.468;2023-05-09T21:25:59;96761.59;;;9.53;100.00
37068;BME280;22982;42.848;25.468;2023-05-09T21:31:01;96757.91;;;9.39;100.00
37068;BME280;22982;42.848;25.468;2023-05-09T21:36:04;96766.00;;;9.52;100.00
37068;BME280;22982;42.848;25.468;2023-05-09T21:41:07;96743.41;;;9.50;100.00
37068;BME280;22982;42.848;25.468;2023-05-09T21:46:10;96718.25;;;9.47;100.00
37068;BME280;22982;42.848;25.468;2023-05-09T21:51:13;96728.03;;;9.61;100.00
37068;BME280;22982;42.848;25.468;2023-05-09T21:56:16;96730.56;;;9.63;100.00
37068;BME280;22982;42.848;25.468;2023-05-09T22:01:18;96738.22;;;9.67;100.00
37068;BME280;22982;42.848;25.468;2023-05-09T22:06:21;96750.06;;;9.57;100.00
37068;BME280;22982;42.848;25.468;2023-05-09T22:11:23;96750.22;;;9.54;100.00
37068;BME280;22982;42.848;25.468;2023-05-09T22:16:26;96745.13;;;9.68;100.00
37068;BME280;22982;42.848;25.468;2023-05-09T22:21:29;96749.47;;;9.69;100.00
37068;BME280;22982;42.848;25.468;2023-05-09T22:26:32;96732.94;;;9.50;100.00
37068;BME280;22982;42.848;25.468;2023-05-09T22:31:34;96724.72;;;9.40;100.00
37068;BME280;22982;42.848;25.468;2023-05-09T22:36:37;96722.81;;;9.25;100.00
37068;BME280;22982;42.848;25.468;2023-05-09T22:41:40;96721.00;;;9.08;100.00
37068;BME280;22982;42.848;25.468;2023-05-09T22:46:42;96729.69;;;9.08;100.00
37068;BME280;22982;42.848;25.468;2023-05-09T22:51:45;96707.22;;;8.85;100.00
37068;BME280;22982;42.848;25.468;2023-05-09T22:56:48;96694.44;;;8.79;100.00
37068;BME280;22982;42.848;25.468;2023-05-09T23:01:50;96702.41;;;8.76;100.00
37068;BME280;22982;42.848;25.468;2023-05-09T23:06:54;96693.53;;;8.42;100.00
37068;BME280;22982;42.848;25.468;2023-05-09T23:11:57;96702.56;;;8.54;100.00
37068;BME280;22982;42.848;25.468;2023-05-09T23:17:00;96705.88;;;8.57;100.00
37068;BME280;22982;42.848;25.468;2023-05-09T23:22:03;96684.13;;;8.76;100.00
37068;BME280;22982;42.848;25.468;2023-05-09T23:27:06;96687.09;;;8.87;100.00
37068;BME280;22982;42.848;25.468;2023-05-09T23:32:08;96693.56;;;8.97;100.00
37068;BME280;22982;42.848;25.468;2023-05-09T23:37:10;96685.59;;;9.00;100.00
37068;BME280;22982;42.848;25.468;2023-05-09T23:42:13;96683.75;;;9.03;100.00
37068;BME280;22982;42.848;25.468;2023-05-09T23:47:15;96667.94;;;8.87;100.00
37068;BME280;22982;42.848;25.468;2023-05-09T23:52:18;96663.38;;;8.73;100.00
37068;BME280;22982;42.848;25.468;2023-05-09T23:57:21;96651.91;;;8.75;100.00
